sensor_id;sensor_type;location;lat;lon;timestamp;pressure;altitude;pressure_sealevel;temperature;humidity
58471;BME280;44258;51.288;12.068;2023-05-03T00:01:57;101632.19;;;9.42;49.86
58471;BME280;44258;51.288;12.068;2023-05-03T00:04:26;101626.81;;;9.42;50.13
58471;BME280;44258;51.288;12.068;2023-05-03T00:06:53;101631.31;;;9.42;50.02
58471;BME280;44258;51.288;12.068;2023-05-03T00:09:19;101625.94;;;9.42;50.01
58471;BME280;44258;51.288;12.068;2023-05-03T00:11:46;101628.59;;;9.43;49.93
58471;BME280;44258;51.288;12.068;2023-05-03T00:14:13;101618.69;;;9.45;49.58
58471;BME280;44258;51.288;12.068;2023-05-03T00:16:39;101626.59;;;9.50;49.60
58471;BME280;44258;51.288;12.068;2023-05-03T00:19:07;101622.44;;;9.38;49.75
58471;BME280;44258;51.288;12.068;2023-05-03T00:21:34;101624.41;;;9.33;49.83
58471;BME280;44258;51.288;12.068;2023-05-03T00:24:01;101624.41;;;9.33;49.87
58471;BME280;44258;51.288;12.068;2023-05-03T00:26:28;101627.13;;;9.31;50.31
58471;BME280;44258;51.288;12.068;2023-05-03T00:28:55;101629.22;;;9.20;50.52
58471;BME280;44258;51.288;12.068;2023-05-03T00:31:21;101624.94;;;9.14;50.67
58471;BME280;44258;51.288;12.068;2023-05-03T00:33:47;101620.78;;;9.04;51.20
58471;BME280;44258;51.288;12.068;2023-05-03T00:36:15;101622.81;;;8.96;51.44
58471;BME280;44258;51.288;12.068;2023-05-03T00:38:42;101617.66;;;8.88;51.92
58471;BME280;44258;51.288;12.068;2023-05-03T00:41:09;101620.41;;;8.85;52.13
58471;BME280;44258;51.288;12.068;2023-05-03T00:43:37;101613.34;;;8.83;51.77
58471;BME280;44258;51.288;12.068;2023-05-03T00:46:05;101612.44;;;8.84;51.46
58471;BME280;44258;51.288;12.068;2023-05-03T00:48:32;101612.31;;;8.87;51.38
58471;BME280;44258;51.288;12.068;2023-05-03T00:50:59;101608.81;;;8.85;51.42
58471;BME280;44258;51.288;12.068;2023-05-03T00:53:28;101607.13;;;8.81;51.42
58471;BME280;44258;51.288;12.068;2023-05-03T00:55:57;101616.06;;;8.81;51.04
58471;BME280;44258;51.288;12.068;2023-05-03T00:58:25;101613.47;;;8.78;50.89
58471;BME280;44258;51.288;12.068;2023-05-03T01:00:52;101614.38;;;8.77;50.91
58471;BME280;44258;51.288;12.068;2023-05-03T01:03:19;101616.28;;;8.73;50.85
58471;BME280;44258;51.288;12.068;2023-05-03T01:05:51;101606.00;;;8.57;51.33
58471;BME280;44258;51.288;12.068;2023-05-03T01:08:31;101612.75;;;8.39;52.10
58471;BME280;44258;51.288;12.068;2023-05-03T01:11:05;101606.81;;;8.27;52.36
58471;BME280;44258;51.288;12.068;2023-05-03T01:13:43;101615.72;;;8.28;52.35
58471;BME280;44258;51.288;12.068;2023-05-03T01:16:25;101612.28;;;8.23;52.63
58471;BME280;44258;51.288;12.068;2023-05-03T01:18:54;101615.88;;;8.22;52.62
58471;BME280;44258;51.288;12.068;2023-05-03T01:21:26;101613.28;;;8.19;53.02
58471;BME280;44258;51.288;12.068;2023-05-03T01:23:58;101617.84;;;8.15;53.41
58471;BME280;44258;51.288;12.068;2023-05-03T01:26:28;101617.03;;;8.11;53.29
58471;BME280;44258;51.288;12.068;2023-05-03T01:28:56;101622.31;;;8.14;53.01
58471;BME280;44258;51.288;12.068;2023-05-03T01:31:28;101617.84;;;8.15;53.14
58471;BME280;44258;51.288;12.068;2023-05-03T01:34:12;101615.28;;;8.10;53.05
58471;BME280;44258;51.288;12.068;2023-05-03T01:36:42;101621.41;;;8.14;52.89
58471;BME280;44258;51.288;12.068;2023-05-03T01:39:13;101619.75;;;8.10;53.22
58471;BME280;44258;51.288;12.068;2023-05-03T01:41:44;101615.56;;;7.98;53.24
58471;BME280;44258;51.288;12.068;2023-05-03T01:44:12;101623.56;;;8.00;53.59
58471;BME280;44258;51.288;12.068;2023-05-03T01:46:42;101621.13;;;7.90;53.87
58471;BME280;44258;51.288;12.068;2023-05-03T01:49:09;101619.31;;;7.91;53.90
58471;BME280;44258;51.288;12.068;2023-05-03T01:51:36;101622.06;;;7.88;54.15
58471;BME280;44258;51.288;12.068;2023-05-03T01:54:02;101623.03;;;7.85;54.03
58471;BME280;44258;51.288;12.068;2023-05-03T01:56:29;101622.22;;;7.82;54.05
58471;BME280;44258;51.288;12.068;2023-05-03T01:58:58;101631.16;;;7.82;53.68
58471;BME280;44258;51.288;12.068;2023-05-03T02:01:24;101632.88;;;7.83;53.49
58471;BME280;44258;51.288;12.068;2023-05-03T02:03:51;101630.91;;;7.91;53.42
58471;BME280;44258;51.288;12.068;2023-05-03T02:06:17;101624.47;;;8.00;52.77
58471;BME280;44258;51.288;12.068;2023-05-03T02:08:44;101632.56;;;7.97;52.78
58471;BME280;44258;51.288;12.068;2023-05-03T02:11:11;101631.59;;;8.00;52.71
58471;BME280;44258;51.288;12.068;2023-05-03T02:13:38;101629.84;;;7.99;52.82
58471;BME280;44258;51.288;12.068;2023-05-03T02:16:06;101629.72;;;8.03;53.13
58471;BME280;44258;51.288;12.068;2023-05-03T02:18:33;101632.41;;;8.03;53.45
58471;BME280;44258;51.288;12.068;2023-05-03T02:21:01;101631.75;;;7.93;53.70
58471;BME280;44258;51.288;12.068;2023-05-03T02:23:28;101633.53;;;7.94;53.58
58471;BME280;44258;51.288;12.068;2023-05-03T02:25:56;101636.34;;;7.88;53.58
58471;BME280;44258;51.288;12.068;2023-05-03T02:28:23;101639.19;;;7.82;53.71
58471;BME280;44258;51.288;12.068;2023-05-03T02:30:51;101645.50;;;7.78;54.16
58471;BME280;44258;51.288;12.068;2023-05-03T02:33:19;101643.81;;;7.74;54.39
58471;BME280;44258;51.288;12.068;2023-05-03T02:35:46;101641.13;;;7.74;54.40
58471;BME280;44258;51.288;12.068;2023-05-03T02:38:12;101642.13;;;7.70;54.58
58471;BME280;44258;51.288;12.068;2023-05-03T02:40:39;101645.63;;;7.72;54.34
58471;BME280;44258;51.288;12.068;2023-05-03T02:43:05;101639.50;;;7.67;53.96
58471;BME280;44258;51.288;12.068;2023-05-03T02:45:34;101641.28;;;7.66;54.14
58471;BME280;44258;51.288;12.068;2023-05-03T02:48:00;101647.41;;;7.71;54.42
58471;BME280;44258;51.288;12.068;2023-05-03T02:50:28;101649.25;;;7.69;54.64
58471;BME280;44258;51.288;12.068;2023-05-03T02:52:55;101647.34;;;7.74;54.40
58471;BME280;44258;51.288;12.068;2023-05-03T02:55:21;101645.41;;;7.83;54.29
58471;BME280;44258;51.288;12.068;2023-05-03T02:57:48;101651.75;;;7.77;54.85
58471;BME280;44258;51.288;12.068;2023-05-03T03:00:15;101659.69;;;7.82;54.80
58471;BME280;44258;51.288;12.068;2023-05-03T03:02:42;101665.13;;;7.80;55.30
58471;BME280;44258;51.288;12.068;2023-05-03T03:05:08;101655.25;;;7.82;55.27
58471;BME280;44258;51.288;12.068;2023-05-03T03:07:37;101662.56;;;7.72;55.56
58471;BME280;44258;51.288;12.068;2023-05-03T03:10:06;101662.53;;;7.74;55.48
58471;BME280;44258;51.288;12.068;2023-05-03T03:12:34;101660.75;;;7.74;54.90
58471;BME280;44258;51.288;12.068;2023-05-03T03:15:01;101670.53;;;7.75;54.08
58471;BME280;44258;51.288;12.068;2023-05-03T03:17:28;101667.78;;;7.79;54.13
58471;BME280;44258;51.288;12.068;2023-05-03T03:19:54;101657.94;;;7.82;53.60
58471;BME280;44258;51.288;12.068;2023-05-03T03:22:22;101662.34;;;7.83;53.53
58471;BME280;44258;51.288;12.068;2023-05-03T03:24:50;101668.78;;;7.74;53.39
58471;BME280;44258;51.288;12.068;2023-05-03T03:27:17;101666.16;;;7.71;53.52
58471;BME280;44258;51.288;12.068;2023-05-03T03:29:45;101660.78;;;7.71;53.41
58471;BME280;44258;51.288;12.068;2023-05-03T03:32:12;101667.25;;;7.63;53.39
58471;BME280;44258;51.288;12.068;2023-05-03T03:34:39;101666.25;;;7.67;53.06
58471;BME280;44258;51.288;12.068;2023-05-03T03:37:06;101676.22;;;7.60;53.34
58471;BME280;44258;51.288;12.068;2023-05-03T03:39:32;101673.84;;;7.48;53.81
58471;BME280;44258;51.288;12.068;2023-05-03T03:42:01;101671.56;;;7.29;53.72
58471;BME280;44258;51.288;12.068;2023-05-03T03:44:28;101667.75;;;7.40;53.53
58471;BME280;44258;51.288;12.068;2023-05-03T03:46:55;101676.63;;;7.43;53.44
58471;BME280;44258;51.288;12.068;2023-05-03T03:49:21;101674.84;;;7.42;53.42
58471;BME280;44258;51.288;12.068;2023-05-03T03:51:48;101674.84;;;7.41;53.61
58471;BME280;44258;51.288;12.068;2023-05-03T03:54:15;101677.78;;;7.30;53.44
58471;BME280;44258;51.288;12.068;2023-05-03T03:56:41;101682.44;;;7.19;53.90
58471;BME280;44258;51.288;12.068;2023-05-03T03:59:09;101686.91;;;7.20;53.64
58471;BME280;44258;51.288;12.068;2023-05-03T04:01:37;101688.72;;;7.18;53.76
58471;BME280;44258;51.288;12.068;2023-05-03T04:04:04;101685.09;;;7.22;53.54
58471;BME280;44258;51.288;12.068;2023-05-03T04:06:33;101689.31;;;7.32;53.33
58471;BME280;44258;51.288;12.068;2023-05-03T04:09:00;101693.59;;;7.41;53.42
58471;BME280;44258;51.288;12.068;2023-05-03T04:11:27;101696.41;;;7.33;53.51
58471;BME280;44258;51.288;12.068;2023-05-03T04:13:54;101709.56;;;7.45;53.64
58471;BME280;44258;51.288;12.068;2023-05-03T04:16:22;101704.28;;;7.42;53.36
58471;BME280;44258;51.288;12.068;2023-05-03T04:18:48;101708.66;;;7.46;53.49
58471;BME280;44258;51.288;12.068;2023-05-03T04:21:15;101706.91;;;7.45;53.71
58471;BME280;44258;51.288;12.068;2023-05-03T04:23:43;101713.13;;;7.46;53.67
58471;BME280;44258;51.288;12.068;2023-05-03T04:26:09;101717.53;;;7.48;53.29
58471;BME280;44258;51.288;12.068;2023-05-03T04:28:37;101721.00;;;7.53;53.49
58471;BME280;44258;51.288;12.068;2023-05-03T04:31:04;101722.88;;;7.48;53.48
58471;BME280;44258;51.288;12.068;2023-05-03T04:33:33;101723.59;;;7.57;53.08
58471;BME280;44258;51.288;12.068;2023-05-03T04:36:00;101721.72;;;7.62;53.07
58471;BME280;44258;51.288;12.068;2023-05-03T04:38:27;101728.78;;;7.66;52.98
58471;BME280;44258;51.288;12.068;2023-05-03T04:40:53;101729.81;;;7.59;52.68
58471;BME280;44258;51.288;12.068;2023-05-03T04:43:21;101728.00;;;7.59;52.86
58471;BME280;44258;51.288;12.068;2023-05-03T04:45:50;101729.78;;;7.60;53.08
58471;BME280;44258;51.288;12.068;2023-05-03T04:48:17;101740.25;;;7.71;52.76
58471;BME280;44258;51.288;12.068;2023-05-03T04:50:45;101736.59;;;7.73;52.85
58471;BME280;44258;51.288;12.068;2023-05-03T04:53:12;101745.63;;;7.26;53.76
58471;BME280;44258;51.288;12.068;2023-05-03T04:55:39;101742.47;;;7.50;53.43
58471;BME280;44258;51.288;12.068;2023-05-03T04:58:05;101741.47;;;7.54;53.41
58471;BME280;44258;51.288;12.068;2023-05-03T05:00:32;101744.25;;;7.51;53.03
58471;BME280;44258;51.288;12.068;2023-05-03T05:02:58;101745.09;;;7.53;53.11
58471;BME280;44258;51.288;12.068;2023-05-03T05:05:25;101746.06;;;7.49;53.27
58471;BME280;44258;51.288;12.068;2023-05-03T05:07:53;101750.91;;;7.29;53.37
58471;BME280;44258;51.288;12.068;2023-05-03T05:10:21;101755.31;;;6.86;53.76
58471;BME280;44258;51.288;12.068;2023-05-03T05:12:48;101755.97;;;6.98;53.44
58471;BME280;44258;51.288;12.068;2023-05-03T05:15:16;101759.63;;;6.93;53.60
58471;BME280;44258;51.288;12.068;2023-05-03T05:17:43;101754.88;;;7.09;53.55
58471;BME280;44258;51.288;12.068;2023-05-03T05:20:10;101761.09;;;7.10;53.41
58471;BME280;44258;51.288;12.068;2023-05-03T05:22:37;101748.06;;;7.38;53.00
58471;BME280;44258;51.288;12.068;2023-05-03T05:25:07;101749.72;;;6.99;53.41
58471;BME280;44258;51.288;12.068;2023-05-03T05:27:33;101754.03;;;7.07;52.89
58471;BME280;44258;51.288;12.068;2023-05-03T05:30:00;101753.63;;;6.79;53.71
58471;BME280;44258;51.288;12.068;2023-05-03T05:32:28;101764.84;;;7.00;53.06
58471;BME280;44258;51.288;12.068;2023-05-03T05:34:55;101762.47;;;6.84;53.68
58471;BME280;44258;51.288;12.068;2023-05-03T05:37:22;101768.28;;;7.06;53.26
58471;BME280;44258;51.288;12.068;2023-05-03T05:39:48;101771.25;;;6.92;53.74
58471;BME280;44258;51.288;12.068;2023-05-03T05:42:16;101770.91;;;7.11;52.85
58471;BME280;44258;51.288;12.068;2023-05-03T05:44:42;101774.78;;;6.94;53.11
58471;BME280;44258;51.288;12.068;2023-05-03T05:47:09;101780.44;;;6.76;53.79
58471;BME280;44258;51.288;12.068;2023-05-03T05:49:36;101786.66;;;6.77;53.44
58471;BME280;44258;51.288;12.068;2023-05-03T05:52:03;101781.53;;;6.63;54.63
58471;BME280;44258;51.288;12.068;2023-05-03T05:54:31;101779.22;;;6.94;53.20
58471;BME280;44258;51.288;12.068;2023-05-03T05:56:57;101781.03;;;6.92;53.69
58471;BME280;44258;51.288;12.068;2023-05-03T05:59:25;101779.38;;;6.85;54.13
58471;BME280;44258;51.288;12.068;2023-05-03T06:01:54;101787.63;;;7.22;53.70
58471;BME280;44258;51.288;12.068;2023-05-03T06:04:21;101778.22;;;7.46;53.09
58471;BME280;44258;51.288;12.068;2023-05-03T06:06:48;101784.28;;;7.58;52.98
58471;BME280;44258;51.288;12.068;2023-05-03T06:09:14;101791.56;;;7.03;54.02
58471;BME280;44258;51.288;12.068;2023-05-03T06:11:42;101784.19;;;7.14;53.37
58471;BME280;44258;51.288;12.068;2023-05-03T06:14:09;101790.53;;;8.00;51.60
58471;BME280;44258;51.288;12.068;2023-05-03T06:16:38;101783.22;;;8.46;50.38
58471;BME280;44258;51.288;12.068;2023-05-03T06:19:04;101787.31;;;8.62;50.11
58471;BME280;44258;51.288;12.068;2023-05-03T06:21:31;101790.94;;;8.60;50.06
58471;BME280;44258;51.288;12.068;2023-05-03T06:23:57;101787.88;;;8.75;50.23
58471;BME280;44258;51.288;12.068;2023-05-03T06:26:24;101784.81;;;8.90;48.67
58471;BME280;44258;51.288;12.068;2023-05-03T06:28:52;101792.75;;;8.93;49.02
58471;BME280;44258;51.288;12.068;2023-05-03T06:31:18;101790.19;;;9.23;48.78
58471;BME280;44258;51.288;12.068;2023-05-03T06:33:46;101789.78;;;8.70;49.28
58471;BME280;44258;51.288;12.068;2023-05-03T06:36:13;101796.91;;;8.71;49.73
58471;BME280;44258;51.288;12.068;2023-05-03T06:38:41;101795.69;;;8.47;50.02
58471;BME280;44258;51.288;12.068;2023-05-03T06:41:08;101797.50;;;8.84;49.58
58471;BME280;44258;51.288;12.068;2023-05-03T06:43:34;101806.00;;;9.34;49.07
58471;BME280;44258;51.288;12.068;2023-05-03T06:46:01;101791.94;;;9.24;48.33
58471;BME280;44258;51.288;12.068;2023-05-03T06:48:27;101796.56;;;9.53;47.47
58471;BME280;44258;51.288;12.068;2023-05-03T06:50:56;101802.50;;;8.98;48.41
58471;BME280;44258;51.288;12.068;2023-05-03T06:53:22;101802.81;;;8.49;49.65
58471;BME280;44258;51.288;12.068;2023-05-03T06:55:48;101799.63;;;9.40;47.84
58471;BME280;44258;51.288;12.068;2023-05-03T06:58:16;101798.53;;;9.78;47.23
58471;BME280;44258;51.288;12.068;2023-05-03T07:00:43;101796.13;;;10.28;45.86
58471;BME280;44258;51.288;12.068;2023-05-03T07:03:10;101788.41;;;10.99;45.96
58471;BME280;44258;51.288;12.068;2023-05-03T07:05:37;101794.16;;;11.15;45.24
58471;BME280;44258;51.288;12.068;2023-05-03T07:08:05;101792.56;;;10.54;45.20
58471;BME280;44258;51.288;12.068;2023-05-03T07:10:32;101787.78;;;11.18;44.11
58471;BME280;44258;51.288;12.068;2023-05-03T07:12:59;101779.53;;;10.97;44.20
58471;BME280;44258;51.288;12.068;2023-05-03T07:15:25;101780.66;;;10.63;42.50
58471;BME280;44258;51.288;12.068;2023-05-03T07:17:52;101780.03;;;10.27;42.85
58471;BME280;44258;51.288;12.068;2023-05-03T07:20:18;101794.97;;;10.64;43.07
58471;BME280;44258;51.288;12.068;2023-05-03T07:22:46;101784.94;;;11.22;41.74
58471;BME280;44258;51.288;12.068;2023-05-03T07:25:14;101784.78;;;10.73;41.67
58471;BME280;44258;51.288;12.068;2023-05-03T07:27:42;101781.91;;;11.06;42.73
58471;BME280;44258;51.288;12.068;2023-05-03T07:30:10;101782.72;;;9.97;43.88
58471;BME280;44258;51.288;12.068;2023-05-03T07:32:36;101787.69;;;9.81;43.99
58471;BME280;44258;51.288;12.068;2023-05-03T07:35:04;101783.63;;;10.26;43.46
58471;BME280;44258;51.288;12.068;2023-05-03T07:37:31;101774.75;;;11.05;42.83
58471;BME280;44258;51.288;12.068;2023-05-03T07:39:58;101776.16;;;11.89;41.11
58471;BME280;44258;51.288;12.068;2023-05-03T07:42:29;101776.66;;;11.52;41.04
58471;BME280;44258;51.288;12.068;2023-05-03T07:44:56;101772.22;;;11.01;42.26
58471;BME280;44258;51.288;12.068;2023-05-03T07:47:25;101767.72;;;11.01;41.43
58471;BME280;44258;51.288;12.068;2023-05-03T07:49:55;101770.22;;;10.81;42.06
58471;BME280;44258;51.288;12.068;2023-05-03T07:52:21;101771.50;;;11.46;40.92
58471;BME280;44258;51.288;12.068;2023-05-03T07:54:48;101771.91;;;12.29;40.14
58471;BME280;44258;51.288;12.068;2023-05-03T07:57:15;101772.63;;;12.57;39.96
58471;BME280;44258;51.288;12.068;2023-05-03T07:59:44;101771.53;;;12.17;40.16
58471;BME280;44258;51.288;12.068;2023-05-03T08:02:13;101768.97;;;10.36;42.22
58471;BME280;44258;51.288;12.068;2023-05-03T08:04:40;101772.34;;;10.71;43.54
58471;BME280;44258;51.288;12.068;2023-05-03T08:07:06;101768.22;;;11.63;41.68
58471;BME280;44258;51.288;12.068;2023-05-03T08:09:33;101765.56;;;12.08;41.12
58471;BME280;44258;51.288;12.068;2023-05-03T08:12:00;101767.97;;;12.16;40.11
58471;BME280;44258;51.288;12.068;2023-05-03T08:14:27;101766.72;;;12.47;40.18
58471;BME280;44258;51.288;12.068;2023-05-03T08:16:56;101765.16;;;12.63;39.85
58471;BME280;44258;51.288;12.068;2023-05-03T08:19:22;101770.50;;;12.65;40.24
58471;BME280;44258;51.288;12.068;2023-05-03T08:21:49;101765.88;;;12.89;39.36
58471;BME280;44258;51.288;12.068;2023-05-03T08:24:16;101763.94;;;13.73;37.43
58471;BME280;44258;51.288;12.068;2023-05-03T08:26:43;101758.31;;;13.78;35.93
58471;BME280;44258;51.288;12.068;2023-05-03T08:29:10;101759.66;;;11.75;39.72
58471;BME280;44258;51.288;12.068;2023-05-03T08:31:37;101764.78;;;12.28;38.99
58471;BME280;44258;51.288;12.068;2023-05-03T08:34:05;101766.53;;;12.07;38.22
58471;BME280;44258;51.288;12.068;2023-05-03T08:36:32;101768.84;;;10.67;41.29
58471;BME280;44258;51.288;12.068;2023-05-03T08:39:01;101754.16;;;10.79;41.02
58471;BME280;44258;51.288;12.068;2023-05-03T08:41:30;101754.03;;;11.81;39.19
58471;BME280;44258;51.288;12.068;2023-05-03T08:43:58;101763.50;;;12.59;39.00
58471;BME280;44258;51.288;12.068;2023-05-03T08:46:26;101756.75;;;13.12;38.11
58471;BME280;44258;51.288;12.068;2023-05-03T08:48:54;101773.50;;;12.35;37.70
58471;BME280;44258;51.288;12.068;2023-05-03T08:51:23;101766.41;;;12.97;37.94
58471;BME280;44258;51.288;12.068;2023-05-03T08:53:50;101764.78;;;12.93;37.38
58471;BME280;44258;51.288;12.068;2023-05-03T08:56:23;101771.53;;;13.25;36.40
58471;BME280;44258;51.288;12.068;2023-05-03T08:58:53;101762.88;;;13.38;37.80
58471;BME280;44258;51.288;12.068;2023-05-03T09:01:24;101761.47;;;12.22;38.03
58471;BME280;44258;51.288;12.068;2023-05-03T09:03:51;101755.03;;;13.31;36.18
58471;BME280;44258;51.288;12.068;2023-05-03T09:06:23;101760.56;;;13.28;37.28
58471;BME280;44258;51.288;12.068;2023-05-03T09:08:50;101760.22;;;13.36;36.89
58471;BME280;44258;51.288;12.068;2023-05-03T09:11:20;101764.31;;;13.84;36.90
58471;BME280;44258;51.288;12.068;2023-05-03T09:13:47;101768.44;;;13.93;36.56
58471;BME280;44258;51.288;12.068;2023-05-03T09:16:21;101758.69;;;12.67;37.86
58471;BME280;44258;51.288;12.068;2023-05-03T09:19:04;101755.75;;;13.14;38.48
58471;BME280;44258;51.288;12.068;2023-05-03T09:21:35;101759.78;;;13.45;37.65
58471;BME280;44258;51.288;12.068;2023-05-03T09:24:02;101759.06;;;13.81;37.22
58471;BME280;44258;51.288;12.068;2023-05-03T09:26:38;101754.06;;;14.48;35.94
58471;BME280;44258;51.288;12.068;2023-05-03T09:29:07;101752.84;;;15.07;35.20
58471;BME280;44258;51.288;12.068;2023-05-03T09:31:35;101754.44;;;14.77;35.27
58471;BME280;44258;51.288;12.068;2023-05-03T09:34:19;101756.19;;;14.41;35.13
58471;BME280;44258;51.288;12.068;2023-05-03T09:36:48;101752.06;;;14.51;35.92
58471;BME280;44258;51.288;12.068;2023-05-03T09:39:18;101750.44;;;14.66;35.39
58471;BME280;44258;51.288;12.068;2023-05-03T09:41:45;101746.75;;;13.74;37.10
58471;BME280;44258;51.288;12.068;2023-05-03T09:44:12;101752.78;;;14.38;36.48
58471;BME280;44258;51.288;12.068;2023-05-03T09:46:38;101742.66;;;14.95;35.80
58471;BME280;44258;51.288;12.068;2023-05-03T09:49:05;101747.25;;;15.45;33.54
58471;BME280;44258;51.288;12.068;2023-05-03T09:51:32;101725.84;;;14.88;35.19
58471;BME280;44258;51.288;12.068;2023-05-03T09:54:01;101737.56;;;14.16;34.94
58471;BME280;44258;51.288;12.068;2023-05-03T09:56:28;101744.25;;;12.68;37.22
58471;BME280;44258;51.288;12.068;2023-05-03T09:58:56;101741.38;;;13.14;36.98
58471;BME280;44258;51.288;12.068;2023-05-03T10:01:23;101746.13;;;13.88;35.88
58471;BME280;44258;51.288;12.068;2023-05-03T10:03:51;101744.03;;;13.94;35.67
58471;BME280;44258;51.288;12.068;2023-05-03T10:06:24;101743.69;;;13.82;36.51
58471;BME280;44258;51.288;12.068;2023-05-03T10:08:53;101730.13;;;14.75;35.15
58471;BME280;44258;51.288;12.068;2023-05-03T10:11:25;101734.81;;;15.06;35.06
58471;BME280;44258;51.288;12.068;2023-05-03T10:13:52;101723.09;;;15.23;35.31
58471;BME280;44258;51.288;12.068;2023-05-03T10:16:24;101728.16;;;13.87;35.22
58471;BME280;44258;51.288;12.068;2023-05-03T10:19:05;101728.16;;;13.28;36.32
58471;BME280;44258;51.288;12.068;2023-05-03T10:21:43;101722.94;;;13.44;35.43
58471;BME280;44258;51.288;12.068;2023-05-03T10:24:14;101716.16;;;13.54;36.65
58471;BME280;44258;51.288;12.068;2023-05-03T10:26:43;101715.53;;;14.24;37.86
58471;BME280;44258;51.288;12.068;2023-05-03T10:29:43;101718.69;;;13.18;36.75
58471;BME280;44258;51.288;12.068;2023-05-03T10:32:31;101711.56;;;13.94;37.05
58471;BME280;44258;51.288;12.068;2023-05-03T10:35:03;101718.97;;;13.51;37.66
58471;BME280;44258;51.288;12.068;2023-05-03T10:37:32;101718.44;;;13.83;36.87
58471;BME280;44258;51.288;12.068;2023-05-03T10:40:09;101722.88;;;13.46;37.40
58471;BME280;44258;51.288;12.068;2023-05-03T10:42:39;101723.88;;;13.43;37.45
58471;BME280;44258;51.288;12.068;2023-05-03T10:45:08;101722.00;;;13.83;37.27
58471;BME280;44258;51.288;12.068;2023-05-03T10:47:44;101719.59;;;12.76;37.52
58471;BME280;44258;51.288;12.068;2023-05-03T10:50:32;101720.91;;;13.29;37.11
58471;BME280;44258;51.288;12.068;2023-05-03T10:52:59;101711.91;;;14.06;37.19
58471;BME280;44258;51.288;12.068;2023-05-03T10:55:26;101718.41;;;14.02;36.96
58471;BME280;44258;51.288;12.068;2023-05-03T10:57:54;101709.84;;;14.66;35.13
58471;BME280;44258;51.288;12.068;2023-05-03T11:00:29;101717.91;;;14.31;36.97
58471;BME280;44258;51.288;12.068;2023-05-03T11:03:10;101719.97;;;13.30;35.57
58471;BME280;44258;51.288;12.068;2023-05-03T11:05:41;101724.16;;;12.96;37.50
58471;BME280;44258;51.288;12.068;2023-05-03T11:08:12;101724.19;;;13.75;35.95
58471;BME280;44258;51.288;12.068;2023-05-03T11:10:39;101721.31;;;14.16;34.86
58471;BME280;44258;51.288;12.068;2023-05-03T11:13:08;101719.66;;;14.32;33.93
58471;BME280;44258;51.288;12.068;2023-05-03T11:15:35;101710.88;;;14.08;36.28
58471;BME280;44258;51.288;12.068;2023-05-03T11:18:03;101706.50;;;13.49;37.02
58471;BME280;44258;51.288;12.068;2023-05-03T11:20:31;101709.81;;;14.49;36.19
58471;BME280;44258;51.288;12.068;2023-05-03T11:22:59;101718.63;;;13.40;36.64
58471;BME280;44258;51.288;12.068;2023-05-03T11:25:26;101707.81;;;13.20;36.59
58471;BME280;44258;51.288;12.068;2023-05-03T11:27:53;101698.09;;;13.74;36.87
58471;BME280;44258;51.288;12.068;2023-05-03T11:30:19;101702.75;;;14.27;36.10
58471;BME280;44258;51.288;12.068;2023-05-03T11:32:47;101708.16;;;14.08;36.02
58471;BME280;44258;51.288;12.068;2023-05-03T11:35:14;101698.69;;;13.43;37.69
58471;BME280;44258;51.288;12.068;2023-05-03T11:37:42;101698.41;;;13.68;37.35
58471;BME280;44258;51.288;12.068;2023-05-03T11:40:15;101703.69;;;11.82;40.47
58471;BME280;44258;51.288;12.068;2023-05-03T11:42:52;101694.59;;;12.93;38.97
58471;BME280;44258;51.288;12.068;2023-05-03T11:45:21;101691.59;;;13.40;38.27
58471;BME280;44258;51.288;12.068;2023-05-03T11:47:49;101693.63;;;12.94;38.09
58471;BME280;44258;51.288;12.068;2023-05-03T11:50:26;101692.44;;;12.81;38.43
58471;BME280;44258;51.288;12.068;2023-05-03T11:52:53;101687.81;;;13.44;36.98
58471;BME280;44258;51.288;12.068;2023-05-03T11:55:22;101685.66;;;14.08;36.04
58471;BME280;44258;51.288;12.068;2023-05-03T11:57:49;101684.03;;;14.42;35.59
58471;BME280;44258;51.288;12.068;2023-05-03T12:00:17;101687.19;;;14.13;35.87
58471;BME280;44258;51.288;12.068;2023-05-03T12:02:49;101695.00;;;14.20;36.41
58471;BME280;44258;51.288;12.068;2023-05-03T12:05:16;101698.03;;;13.75;37.23
58471;BME280;44258;51.288;12.068;2023-05-03T12:07:43;101701.06;;;13.30;37.59
58471;BME280;44258;51.288;12.068;2023-05-03T12:10:12;101699.41;;;13.84;38.12
58471;BME280;44258;51.288;12.068;2023-05-03T12:12:50;101698.59;;;13.82;36.49
58471;BME280;44258;51.288;12.068;2023-05-03T12:15:26;101698.06;;;14.31;36.07
58471;BME280;44258;51.288;12.068;2023-05-03T12:17:55;101696.03;;;14.36;35.56
58471;BME280;44258;51.288;12.068;2023-05-03T12:20:22;101687.34;;;14.47;35.25
58471;BME280;44258;51.288;12.068;2023-05-03T12:22:51;101679.19;;;13.93;36.97
58471;BME280;44258;51.288;12.068;2023-05-03T12:25:18;101676.25;;;13.98;35.85
58471;BME280;44258;51.288;12.068;2023-05-03T12:27:46;101675.41;;;14.14;34.94
58471;BME280;44258;51.288;12.068;2023-05-03T12:30:14;101672.38;;;14.57;34.67
58471;BME280;44258;51.288;12.068;2023-05-03T12:32:40;101669.84;;;14.71;35.44
58471;BME280;44258;51.288;12.068;2023-05-03T12:35:07;101676.03;;;14.39;35.98
58471;BME280;44258;51.288;12.068;2023-05-03T12:37:34;101677.28;;;13.76;36.16
58471;BME280;44258;51.288;12.068;2023-05-03T12:40:01;101673.72;;;13.94;36.88
58471;BME280;44258;51.288;12.068;2023-05-03T12:42:28;101675.69;;;13.13;37.51
58471;BME280;44258;51.288;12.068;2023-05-03T12:44:57;101665.22;;;13.83;38.39
58471;BME280;44258;51.288;12.068;2023-05-03T12:47:24;101666.97;;;13.84;37.09
58471;BME280;44258;51.288;12.068;2023-05-03T12:49:52;101665.63;;;14.12;36.86
58471;BME280;44258;51.288;12.068;2023-05-03T12:52:20;101659.59;;;14.61;36.09